Mugan — 9HA2962 — position and weather

sailwx.info

Track history (hours):
 
Tides and Currents Weather Stations Pressure Air Temp Water Temp Dewpoint Dewpoint Depression Visibility Wind Speed Wind Dir Waves Ship Positions

Mugan

Last reported at 2016-Feb-06 01:33 UTC. Time now 2016-Feb-06 09:20 UTC.
Position N 39°55' E 001°20'.

Length 140 m; draft 4.3 m.

Type: Tanker. MMSI: 256914000.

Date/timePositionNaut miles runAvg speedWind from/ knotsBaromVisibWave heightAir tempDewpointWater temp
2016-Feb-06 01:33N 39°55' E 001°20'9 9.4
2016-Feb-06 00:33N 40°04' E 001°25'1010.3
2016-Feb-05 23:33N 40°13' E 001°31'1010.3
2016-Feb-05 22:33N 40°23' E 001°37'1010.2
2016-Feb-05 21:33N 40°32' E 001°42'1010.3
2016-Feb-05 20:32N 40°41' E 001°49'1010.2
2016-Feb-05 19:33N 40°50' E 001°54'1010.3
2016-Feb-05 18:33N 40°59' E 002°00'1010.3
2016-Feb-05 17:33N 41°09' E 002°06'10 9.5
2016-Feb-05 16:33N 41°18' E 002°11'26 0.6
2016-Feb-03 19:09N 40°54' E 001°57'610.4
2016-Feb-03 18:33N 40°48' E 001°53'1010.3
2016-Feb-03 17:33N 40°39' E 001°47'10 9.9
2016-Feb-03 16:33N 40°30' E 001°41'10 9.9
2016-Feb-03 15:33N 40°21' E 001°36'9 9.3
2016-Feb-03 14:33N 40°13' E 001°31'9 9.4
2016-Feb-03 13:33N 40°04' E 001°25'1010.3
2016-Feb-03 12:33N 39°55' E 001°19'13510.2
2016-Feb-02 23:19N 37°46' E 000°27'810.4
2016-Feb-02 22:33N 37°42' E 000°18'1010.5
2016-Feb-02 21:33N 37°35' E 000°08'1010.3
2016-Feb-02 20:33N 37°29' W 000°03'1010.5
2016-Feb-02 19:33N 37°23' W 000°14'1010.3
2016-Feb-02 18:33N 37°17' W 000°24'1010.0
2016-Feb-02 17:33N 37°11' W 000°34'1010.4
2016-Feb-02 16:33N 37°05' W 000°45'22410.4
2016-Feb-01 19:05N 35°57' W 005°10'611.4
2016-Feb-01 18:33N 35°55' W 005°18'2 1.5
2016-Feb-01 17:33N 35°54' W 005°18'0 0.0
2016-Feb-01 16:33N 35°54' W 005°18'0 0.0
2016-Feb-01 15:33N 35°54' W 005°18'1 1.4
2016-Feb-01 14:33N 35°55' W 005°20'6 5.9
2016-Feb-01 13:33N 35°57' W 005°26'  
Track history (hours):
 
Tides and Currents Weather Stations Pressure Air Temp Water Temp Dewpoint Dewpoint Depression Visibility Wind Speed Wind Dir Waves Ship Positions

Mugan

Last reported at 2016-Feb-06 01:33 UTC. Time now 2016-Feb-06 09:20 UTC.
Position N 39°55' E 001°20'.

Length 140 m; draft 4.3 m.

Type: Tanker. MMSI: 256914000.

Date/timePositionNaut miles runAvg speedWind from/ knotsBaromVisibWave heightAir tempDewpointWater temp
2016-Feb-06 01:33N 39°55' E 001°20'9 9.4
2016-Feb-06 00:33N 40°04' E 001°25'1010.3
2016-Feb-05 23:33N 40°13' E 001°31'1010.3
2016-Feb-05 22:33N 40°23' E 001°37'1010.2
2016-Feb-05 21:33N 40°32' E 001°42'1010.3
2016-Feb-05 20:32N 40°41' E 001°49'1010.2
2016-Feb-05 19:33N 40°50' E 001°54'1010.3
2016-Feb-05 18:33N 40°59' E 002°00'1010.3
2016-Feb-05 17:33N 41°09' E 002°06'10 9.5
2016-Feb-05 16:33N 41°18' E 002°11'26 0.6
2016-Feb-03 19:09N 40°54' E 001°57'610.4
2016-Feb-03 18:33N 40°48' E 001°53'1010.3
2016-Feb-03 17:33N 40°39' E 001°47'10 9.9
2016-Feb-03 16:33N 40°30' E 001°41'10 9.9
2016-Feb-03 15:33N 40°21' E 001°36'9 9.3
2016-Feb-03 14:33N 40°13' E 001°31'9 9.4
2016-Feb-03 13:33N 40°04' E 001°25'1010.3
2016-Feb-03 12:33N 39°55' E 001°19'13510.2
2016-Feb-02 23:19N 37°46' E 000°27'810.4
2016-Feb-02 22:33N 37°42' E 000°18'1010.5
2016-Feb-02 21:33N 37°35' E 000°08'1010.3
2016-Feb-02 20:33N 37°29' W 000°03'1010.5
2016-Feb-02 19:33N 37°23' W 000°14'1010.3
2016-Feb-02 18:33N 37°17' W 000°24'1010.0
2016-Feb-02 17:33N 37°11' W 000°34'1010.4
2016-Feb-02 16:33N 37°05' W 000°45'22410.4
2016-Feb-01 19:05N 35°57' W 005°10'611.4
2016-Feb-01 18:33N 35°55' W 005°18'2 1.5
2016-Feb-01 17:33N 35°54' W 005°18'0 0.0
2016-Feb-01 16:33N 35°54' W 005°18'0 0.0
2016-Feb-01 15:33N 35°54' W 005°18'1 1.4
2016-Feb-01 14:33N 35°55' W 005°20'6 5.9
2016-Feb-01 13:33N 35°57' W 005°26'  

Dump ship's entire track history